UAE232 WIII-OMDB
Flight info
| Callsign | UAE232 |
|---|---|
| Flight time | N/A |
| Altitude | 34000 |
| Route | RIMTI M766 OBMAT L896 PAKRA/N0487F360 L896 MMV P574 GULAM/N0484F380 P574 PAROK Q899 ITURA M762 VAXAS/N0411F240 M762 MIVEK P574 IMPED |
| Aircraft | B77W/H-SDE1E2E3FGHIJ2J3J4J5M1RWXY/LB1D1 |
Departure
| Time | 2026-05-04 19:54 |
|---|---|
| Airport | Soekarno-Hatta International Airport (WIII) |
Arrival
| Time | N/A |
|---|---|
| Airport | Dubai International Airport (OMDB) |
| Time | Latitude | Longitude | Altitude | Speed | Heading |
|---|---|---|---|---|---|
| 2026-05-04 19:35 | -6.11892 | 106.65749 | 53 ft | 0 kts | 68° |
| 2026-05-04 19:44 | -6.11897 | 106.65738 | 53 ft | 2 kts | 68° |
| 2026-05-04 19:44 | -6.11902 | 106.65724 | 53 ft | 2 kts | 68° |
| 2026-05-04 19:45 | -6.11908 | 106.65710 | 53 ft | 2 kts | 68° |
| 2026-05-04 19:45 | -6.11912 | 106.65700 | 53 ft | 1 kts | 68° |
| 2026-05-04 19:45 | -6.11919 | 106.65688 | 53 ft | 2 kts | 39° |
| 2026-05-04 19:45 | -6.11932 | 106.65682 | 53 ft | 2 kts | 2° |
| 2026-05-04 19:46 | -6.11944 | 106.65683 | 53 ft | 0 kts | 339° |
| 2026-05-04 19:46 | -6.11949 | 106.65685 | 53 ft | 0 kts | 337° |
| 2026-05-04 19:48 | -6.11886 | 106.65660 | 53 ft | 13 kts | 339° |
| 2026-05-04 19:48 | -6.11783 | 106.65620 | 53 ft | 11 kts | 339° |
| 2026-05-04 19:48 | -6.11714 | 106.65619 | 53 ft | 9 kts | 36° |
| 2026-05-04 19:49 | -6.11682 | 106.65672 | 53 ft | 8 kts | 65° |
| 2026-05-04 19:49 | -6.11657 | 106.65730 | 53 ft | 8 kts | 67° |
| 2026-05-04 19:49 | -6.11627 | 106.65803 | 53 ft | 14 kts | 68° |
| 2026-05-04 19:49 | -6.11584 | 106.65916 | 53 ft | 17 kts | 72° |
| 2026-05-04 19:50 | -6.11545 | 106.66025 | 53 ft | 15 kts | 68° |
| 2026-05-04 19:50 | -6.11518 | 106.66088 | 53 ft | 14 kts | 66° |
| 2026-05-04 19:50 | -6.11460 | 106.66230 | 53 ft | 24 kts | 69° |
| 2026-05-04 19:50 | -6.11388 | 106.66412 | 53 ft | 28 kts | 68° |
| 2026-05-04 19:51 | -6.11318 | 106.66585 | 53 ft | 25 kts | 68° |
| 2026-05-04 19:51 | -6.11256 | 106.66741 | 53 ft | 22 kts | 68° |
| 2026-05-04 19:51 | -6.11203 | 106.66873 | 53 ft | 18 kts | 68° |
| 2026-05-04 19:51 | -6.11173 | 106.66950 | 53 ft | 17 kts | 69° |
| 2026-05-04 19:52 | -6.11082 | 106.67004 | 53 ft | 10 kts | 341° |
| 2026-05-04 19:52 | -6.11017 | 106.66981 | 53 ft | 9 kts | 340° |
| 2026-05-04 19:52 | -6.10938 | 106.66898 | 53 ft | 6 kts | 284° |
| 2026-05-04 19:53 | -6.10930 | 106.66853 | 53 ft | 6 kts | 280° |
| 2026-05-04 19:53 | -6.10932 | 106.66814 | 53 ft | 5 kts | 251° |
| 2026-05-04 19:53 | -6.10941 | 106.66789 | 53 ft | 6 kts | 248° |
| 2026-05-04 19:53 | -6.11112 | 106.66374 | 53 ft | 98 kts | 248° |
| 2026-05-04 19:54 | -6.11322 | 106.65848 | 54 ft | 144 kts | 249° |
| 2026-05-04 19:54 | -6.11914 | 106.64328 | 492 ft | 188 kts | 249° |
| 2026-05-04 19:54 | -6.12373 | 106.63071 | 1294 ft | 195 kts | 250° |
| 2026-05-04 19:54 | -6.12826 | 106.61839 | 2089 ft | 189 kts | 251° |
| 2026-05-04 19:55 | -6.13048 | 106.60500 | 2475 ft | 204 kts | 275° |
| 2026-05-04 19:55 | -6.12665 | 106.59084 | 2866 ft | 220 kts | 295° |
| 2026-05-04 19:55 | -6.12026 | 106.57619 | 3382 ft | 237 kts | 295° |
| 2026-05-04 19:55 | -6.11337 | 106.56062 | 3917 ft | 253 kts | 295° |
| 2026-05-04 19:56 | -6.10597 | 106.54389 | 4490 ft | 269 kts | 295° |
| 2026-05-04 19:56 | -6.09817 | 106.52625 | 5206 ft | 279 kts | 295° |
| 2026-05-04 19:56 | -6.09033 | 106.50848 | 6090 ft | 282 kts | 295° |
| 2026-05-04 19:56 | -6.08142 | 106.49055 | 6870 ft | 286 kts | 308° |
| 2026-05-04 19:57 | -6.06712 | 106.47699 | 7668 ft | 287 kts | 326° |
| 2026-05-04 19:57 | -6.05059 | 106.46605 | 8490 ft | 288 kts | 329° |
| 2026-05-04 19:57 | -6.03347 | 106.45536 | 9265 ft | 292 kts | 329° |
| 2026-05-04 19:57 | -6.01597 | 106.44447 | 10041 ft | 296 kts | 329° |
| 2026-05-04 19:58 | -5.99794 | 106.43321 | 10551 ft | 311 kts | 329° |
| 2026-05-04 19:58 | -5.97933 | 106.42156 | 10995 ft | 327 kts | 329° |
| 2026-05-04 19:58 | -5.95942 | 106.40910 | 11450 ft | 343 kts | 329° |
| 2026-05-04 19:58 | -5.93863 | 106.39607 | 11904 ft | 358 kts | 329° |
| 2026-05-04 19:59 | -5.91676 | 106.38238 | 12368 ft | 372 kts | 329° |
| 2026-05-04 19:59 | -5.89442 | 106.36839 | 12811 ft | 386 kts | 329° |
| 2026-05-04 19:59 | -5.87119 | 106.35385 | 13366 ft | 395 kts | 329° |
| 2026-05-04 19:59 | -5.84748 | 106.33900 | 14042 ft | 400 kts | 329° |
| 2026-05-04 20:00 | -5.82359 | 106.32404 | 14687 ft | 406 kts | 329° |
| 2026-05-04 20:00 | -5.79969 | 106.30907 | 15347 ft | 410 kts | 329° |
| 2026-05-04 20:00 | -5.77524 | 106.29372 | 16003 ft | 414 kts | 328° |
| 2026-05-04 20:00 | -5.75255 | 106.27598 | 16611 ft | 420 kts | 318° |
| 2026-05-04 20:01 | -5.73277 | 106.25378 | 17218 ft | 426 kts | 307° |
| 2026-05-04 20:01 | -5.71733 | 106.22858 | 17783 ft | 431 kts | 298° |
| 2026-05-04 20:01 | -5.70390 | 106.20135 | 18379 ft | 436 kts | 297° |
| 2026-05-04 20:01 | -5.69051 | 106.17371 | 18924 ft | 441 kts | 297° |
| 2026-05-04 20:02 | -5.67703 | 106.14598 | 19502 ft | 444 kts | 297° |
| 2026-05-04 20:02 | -5.66353 | 106.11829 | 20069 ft | 447 kts | 297° |
| 2026-05-04 20:02 | -5.64966 | 106.08993 | 20586 ft | 452 kts | 297° |
| 2026-05-04 20:02 | -5.63580 | 106.06160 | 20820 ft | 457 kts | 297° |
| 2026-05-04 20:03 | -5.62181 | 106.03304 | 20844 ft | 456 kts | 297° |
| 2026-05-04 20:03 | -5.60782 | 106.00451 | 20849 ft | 456 kts | 297° |
| 2026-05-04 20:03 | -5.59369 | 105.97570 | 20851 ft | 455 kts | 297° |
| 2026-05-04 20:03 | -5.57970 | 105.94722 | 20849 ft | 455 kts | 297° |
| 2026-05-04 20:04 | -5.56575 | 105.91880 | 20847 ft | 456 kts | 297° |
| 2026-05-04 20:04 | -5.55168 | 105.89016 | 20852 ft | 456 kts | 297° |
| 2026-05-04 20:04 | -5.53760 | 105.86151 | 20859 ft | 456 kts | 297° |
| 2026-05-04 20:04 | -5.52360 | 105.83302 | 20852 ft | 456 kts | 297° |
| 2026-05-04 20:05 | -5.50951 | 105.80436 | 20853 ft | 455 kts | 297° |
| 2026-05-04 20:05 | -5.49555 | 105.77597 | 20855 ft | 456 kts | 297° |
| 2026-05-04 20:05 | -5.48150 | 105.74739 | 20854 ft | 456 kts | 297° |
| 2026-05-04 20:05 | -5.46736 | 105.71865 | 20858 ft | 456 kts | 297° |
| 2026-05-04 20:06 | -5.45333 | 105.69012 | 20857 ft | 456 kts | 297° |
| 2026-05-04 20:06 | -5.43940 | 105.66181 | 20856 ft | 456 kts | 297° |
| 2026-05-04 20:06 | -5.42538 | 105.63301 | 20855 ft | 456 kts | 295° |
| 2026-05-04 20:06 | -5.41354 | 105.60323 | 20968 ft | 466 kts | 291° |
| 2026-05-04 20:07 | -5.40219 | 105.57288 | 21590 ft | 465 kts | 291° |
| 2026-05-04 20:07 | -5.39097 | 105.54281 | 22283 ft | 463 kts | 291° |
| 2026-05-04 20:07 | -5.37960 | 105.51240 | 22834 ft | 465 kts | 291° |
| 2026-05-04 20:07 | -5.36805 | 105.48153 | 23264 ft | 470 kts | 291° |
| 2026-05-04 20:08 | -5.35650 | 105.45066 | 23743 ft | 473 kts | 291° |
| 2026-05-04 20:08 | -5.34499 | 105.41994 | 24226 ft | 476 kts | 291° |
| 2026-05-04 20:08 | -5.33332 | 105.38879 | 24707 ft | 480 kts | 291° |
| 2026-05-04 20:08 | -5.32150 | 105.35725 | 25181 ft | 483 kts | 291° |
| 2026-05-04 20:09 | -5.30957 | 105.32542 | 25653 ft | 486 kts | 291° |
| 2026-05-04 20:09 | -5.29763 | 105.29358 | 26138 ft | 489 kts | 291° |
| 2026-05-04 20:09 | -5.28568 | 105.26171 | 26618 ft | 492 kts | 291° |
| 2026-05-04 20:09 | -5.27365 | 105.22966 | 27084 ft | 495 kts | 291° |
| 2026-05-04 20:10 | -5.26123 | 105.19702 | 27556 ft | 498 kts | 294° |
| 2026-05-04 20:10 | -5.24684 | 105.16566 | 28004 ft | 500 kts | 296° |
| 2026-05-04 20:10 | -5.23173 | 105.13422 | 28465 ft | 503 kts | 296° |
| 2026-05-04 20:10 | -5.21633 | 105.10227 | 28921 ft | 506 kts | 296° |
| 2026-05-04 20:11 | -5.20110 | 105.07065 | 29458 ft | 507 kts | 296° |
| 2026-05-04 20:11 | -5.18580 | 105.03886 | 30187 ft | 504 kts | 297° |
| 2026-05-04 20:11 | -5.17075 | 105.00760 | 31039 ft | 498 kts | 297° |
| 2026-05-04 20:11 | -5.15574 | 104.97639 | 31851 ft | 492 kts | 297° |
| 2026-05-04 20:12 | -5.14091 | 104.94557 | 32547 ft | 489 kts | 297° |
| 2026-05-04 20:12 | -5.12625 | 104.91512 | 33207 ft | 486 kts | 297° |
| 2026-05-04 20:12 | -5.11158 | 104.88464 | 33777 ft | 486 kts | 297° |
| 2026-05-04 20:12 | -5.09671 | 104.85375 | 33888 ft | 489 kts | 297° |
| 2026-05-04 20:13 | -5.08197 | 104.82312 | 33888 ft | 486 kts | 297° |
| 2026-05-04 20:13 | -5.05270 | 104.76230 | 33897 ft | 485 kts | 297° |
| 2026-05-04 20:14 | -5.02321 | 104.70105 | 33913 ft | 485 kts | 297° |
| 2026-05-04 20:14 | -4.99403 | 104.64047 | 33943 ft | 483 kts | 297° |
| 2026-05-04 20:15 | -4.96471 | 104.57959 | 33962 ft | 484 kts | 297° |
| 2026-05-04 20:15 | -4.93554 | 104.51906 | 33973 ft | 483 kts | 297° |
| 2026-05-04 20:16 | -4.90619 | 104.45826 | 33979 ft | 483 kts | 297° |
| 2026-05-04 20:16 | -4.87648 | 104.39770 | 33972 ft | 483 kts | 297° |
| 2026-05-04 20:17 | -4.84666 | 104.33694 | 33967 ft | 482 kts | 297° |
| 2026-05-04 20:17 | -4.81725 | 104.27699 | 33964 ft | 482 kts | 297° |
| 2026-05-04 20:18 | -4.78760 | 104.21657 | 33968 ft | 482 kts | 297° |
| 2026-05-04 20:18 | -4.75803 | 104.15631 | 33954 ft | 482 kts | 297° |
| 2026-05-04 20:19 | -4.72834 | 104.09584 | 33941 ft | 484 kts | 297° |
| 2026-05-04 20:19 | -4.69863 | 104.03532 | 33953 ft | 483 kts | 297° |
| 2026-05-04 20:20 | -4.66897 | 103.97492 | 33948 ft | 484 kts | 297° |
| 2026-05-04 20:20 | -4.63936 | 103.91464 | 33959 ft | 483 kts | 297° |
| 2026-05-04 20:21 | -4.60938 | 103.85364 | 33961 ft | 485 kts | 297° |
| 2026-05-04 20:21 | -4.56482 | 103.76296 | 33966 ft | 485 kts | 297° |
| 2026-05-04 20:22 | -4.53491 | 103.70213 | 33967 ft | 485 kts | 297° |
| 2026-05-04 20:22 | -4.50500 | 103.64132 | 33957 ft | 487 kts | 297° |
| 2026-05-04 20:23 | -4.47513 | 103.58059 | 33961 ft | 486 kts | 297° |
| 2026-05-04 20:23 | -4.44525 | 103.51985 | 33979 ft | 486 kts | 297° |
| 2026-05-04 20:24 | -4.41545 | 103.45930 | 33994 ft | 486 kts | 297° |
| 2026-05-04 20:24 | -4.38541 | 103.39829 | 34016 ft | 489 kts | 297° |
| 2026-05-04 20:25 | -4.35518 | 103.33688 | 34054 ft | 488 kts | 297° |
| 2026-05-04 20:25 | -4.32491 | 103.27542 | 34104 ft | 488 kts | 297° |
| 2026-05-04 20:26 | -4.29481 | 103.21431 | 34141 ft | 488 kts | 297° |
| 2026-05-04 20:26 | -4.26468 | 103.15317 | 34117 ft | 486 kts | 297° |
| 2026-05-04 20:27 | -4.23480 | 103.09253 | 34048 ft | 488 kts | 297° |
| 2026-05-04 20:27 | -4.20460 | 103.03129 | 34010 ft | 488 kts | 297° |
| 2026-05-04 20:28 | -4.17450 | 102.97025 | 33991 ft | 488 kts | 297° |
| 2026-05-04 20:28 | -4.14448 | 102.90938 | 33991 ft | 488 kts | 297° |
| 2026-05-04 20:29 | -4.11434 | 102.84828 | 33982 ft | 489 kts | 297° |
| 2026-05-04 20:29 | -4.08422 | 102.78722 | 33976 ft | 490 kts | 297° |
| 2026-05-04 20:30 | -4.05413 | 102.72626 | 33959 ft | 490 kts | 297° |
| 2026-05-04 20:30 | -4.02363 | 102.66449 | 33940 ft | 490 kts | 297° |
| 2026-05-04 20:31 | -3.99352 | 102.60350 | 33935 ft | 493 kts | 297° |
| 2026-05-04 20:31 | -3.96318 | 102.54207 | 33912 ft | 491 kts | 297° |
| 2026-05-04 20:32 | -3.93266 | 102.48028 | 33903 ft | 492 kts | 297° |
| 2026-05-04 20:32 | -3.90237 | 102.41899 | 33904 ft | 493 kts | 297° |
| 2026-05-04 20:33 | -3.87185 | 102.35723 | 33890 ft | 493 kts | 297° |
| 2026-05-04 20:33 | -3.84144 | 102.29580 | 33880 ft | 493 kts | 297° |
| 2026-05-04 20:34 | -3.81113 | 102.23467 | 33870 ft | 492 kts | 297° |
| 2026-05-04 20:34 | -3.78056 | 102.17303 | 33873 ft | 492 kts | 297° |
| 2026-05-04 20:35 | -3.75001 | 102.11142 | 33867 ft | 493 kts | 297° |
| 2026-05-04 20:35 | -3.71961 | 102.05012 | 33857 ft | 494 kts | 297° |
| 2026-05-04 20:36 | -3.68908 | 101.98858 | 33865 ft | 494 kts | 297° |
| 2026-05-04 20:36 | -3.65854 | 101.92703 | 33868 ft | 493 kts | 297° |
| 2026-05-04 20:37 | -3.62803 | 101.86554 | 33868 ft | 493 kts | 297° |
| 2026-05-04 20:37 | -3.59749 | 101.80403 | 33862 ft | 492 kts | 297° |
| 2026-05-04 20:38 | -3.56697 | 101.74256 | 33868 ft | 493 kts | 297° |
| 2026-05-04 20:38 | -3.53644 | 101.68111 | 33860 ft | 493 kts | 297° |
| 2026-05-04 20:39 | -3.50584 | 101.61949 | 33858 ft | 493 kts | 297° |
| 2026-05-04 20:39 | -3.47542 | 101.55827 | 33854 ft | 492 kts | 297° |
| 2026-05-04 20:40 | -3.44493 | 101.49692 | 33851 ft | 492 kts | 297° |
| 2026-05-04 20:40 | -3.41441 | 101.43551 | 33852 ft | 490 kts | 297° |
| 2026-05-04 20:41 | -3.38405 | 101.37444 | 33846 ft | 493 kts | 297° |
| 2026-05-04 20:41 | -3.35351 | 101.31302 | 33840 ft | 490 kts | 297° |
| 2026-05-04 20:42 | -3.32296 | 101.25160 | 33848 ft | 493 kts | 297° |
| 2026-05-04 20:42 | -3.29239 | 101.19014 | 33850 ft | 492 kts | 297° |
| 2026-05-04 20:43 | -3.26166 | 101.12837 | 33846 ft | 492 kts | 297° |
| 2026-05-04 20:43 | -3.23125 | 101.06726 | 33853 ft | 493 kts | 297° |
| 2026-05-04 20:44 | -3.20058 | 101.00565 | 33849 ft | 491 kts | 297° |
| 2026-05-04 20:44 | -3.17025 | 100.94470 | 33848 ft | 491 kts | 297° |
| 2026-05-04 20:45 | -3.13969 | 100.88334 | 33849 ft | 493 kts | 297° |
| 2026-05-04 20:45 | -3.10918 | 100.82206 | 33849 ft | 492 kts | 297° |
| 2026-05-04 20:46 | -3.07868 | 100.76083 | 33849 ft | 491 kts | 297° |
| 2026-05-04 20:46 | -3.04815 | 100.69954 | 33848 ft | 490 kts | 297° |
| 2026-05-04 20:47 | -3.01753 | 100.63808 | 33848 ft | 491 kts | 297° |
| 2026-05-04 20:47 | -2.98702 | 100.57685 | 33850 ft | 490 kts | 297° |
| 2026-05-04 20:48 | -2.95677 | 100.51617 | 33850 ft | 490 kts | 297° |
| 2026-05-04 20:48 | -2.92629 | 100.45502 | 33851 ft | 491 kts | 297° |
| 2026-05-04 20:49 | -2.89573 | 100.39372 | 33854 ft | 490 kts | 297° |
| 2026-05-04 20:49 | -2.86529 | 100.33266 | 33857 ft | 491 kts | 297° |
| 2026-05-04 20:50 | -2.83487 | 100.27167 | 33850 ft | 489 kts | 297° |
| 2026-05-04 20:50 | -2.80436 | 100.21049 | 33837 ft | 490 kts | 297° |
| 2026-05-04 20:51 | -2.77390 | 100.14943 | 33832 ft | 491 kts | 297° |
| 2026-05-04 20:51 | -2.74325 | 100.08800 | 33832 ft | 492 kts | 297° |
| 2026-05-04 20:52 | -2.71276 | 100.02691 | 33831 ft | 491 kts | 297° |
| 2026-05-04 20:52 | -2.68208 | 99.96544 | 33832 ft | 492 kts | 297° |
| 2026-05-04 20:53 | -2.65152 | 99.90421 | 33827 ft | 492 kts | 297° |
| 2026-05-04 20:53 | -2.62106 | 99.84320 | 33828 ft | 492 kts | 297° |
| 2026-05-04 20:54 | -2.59029 | 99.78157 | 33828 ft | 492 kts | 297° |
| 2026-05-04 20:54 | -2.55979 | 99.72051 | 33827 ft | 493 kts | 297° |
| 2026-05-04 20:55 | -2.52901 | 99.65889 | 33827 ft | 493 kts | 297° |
| 2026-05-04 20:55 | -2.49818 | 99.59717 | 33829 ft | 494 kts | 297° |
| 2026-05-04 20:56 | -2.46776 | 99.53584 | 33829 ft | 493 kts | 296° |
| 2026-05-04 20:56 | -2.43849 | 99.47366 | 33829 ft | 494 kts | 296° |
| 2026-05-04 20:57 | -2.40919 | 99.41141 | 33829 ft | 494 kts | 296° |
| 2026-05-04 20:57 | -2.37972 | 99.34890 | 33830 ft | 495 kts | 296° |
| 2026-05-04 20:58 | -2.35042 | 99.28683 | 33825 ft | 494 kts | 296° |
| 2026-05-04 20:58 | -2.32113 | 99.22482 | 33825 ft | 494 kts | 296° |
| 2026-05-04 20:59 | -2.29169 | 99.16251 | 33835 ft | 495 kts | 296° |
| 2026-05-04 20:59 | -2.26225 | 99.10023 | 33846 ft | 494 kts | 296° |
| 2026-05-04 21:00 | -2.23273 | 99.03779 | 33848 ft | 496 kts | 296° |
| 2026-05-04 21:00 | -2.20327 | 98.97546 | 33847 ft | 496 kts | 296° |
| 2026-05-04 21:01 | -2.17391 | 98.91338 | 33847 ft | 496 kts | 296° |
| 2026-05-04 21:01 | -2.14418 | 98.85053 | 33847 ft | 494 kts | 296° |
| 2026-05-04 21:02 | -2.11465 | 98.78809 | 33847 ft | 495 kts | 296° |
| 2026-05-04 21:02 | -2.08526 | 98.72595 | 33847 ft | 494 kts | 296° |
| 2026-05-04 21:03 | -2.05577 | 98.66364 | 33848 ft | 495 kts | 296° |
| 2026-05-04 21:03 | -2.02623 | 98.60120 | 33850 ft | 494 kts | 296° |
| 2026-05-04 21:04 | -1.99686 | 98.53915 | 33848 ft | 494 kts | 296° |
| 2026-05-04 21:04 | -1.96733 | 98.47675 | 33848 ft | 493 kts | 296° |
| 2026-05-04 21:05 | -1.93792 | 98.41464 | 33851 ft | 494 kts | 296° |
| 2026-05-04 21:05 | -1.90861 | 98.35270 | 33850 ft | 493 kts | 296° |
| 2026-05-04 21:06 | -1.87925 | 98.29068 | 33848 ft | 494 kts | 296° |
| 2026-05-04 21:06 | -1.84989 | 98.22868 | 33847 ft | 494 kts | 296° |
| 2026-05-04 21:07 | -1.82032 | 98.16625 | 33840 ft | 493 kts | 296° |
| 2026-05-04 21:07 | -1.79104 | 98.10441 | 33834 ft | 494 kts | 296° |
| 2026-05-04 21:08 | -1.76164 | 98.04234 | 33835 ft | 495 kts | 296° |
| 2026-05-04 21:08 | -1.73191 | 97.97959 | 33833 ft | 495 kts | 296° |
| 2026-05-04 21:09 | -1.70258 | 97.91766 | 33841 ft | 495 kts | 296° |
| 2026-05-04 21:09 | -1.67303 | 97.85530 | 33849 ft | 494 kts | 296° |
| 2026-05-04 21:10 | -1.64359 | 97.79317 | 33849 ft | 494 kts | 296° |
| 2026-05-04 21:10 | -1.61414 | 97.73103 | 33849 ft | 494 kts | 296° |
| 2026-05-04 21:11 | -1.57998 | 97.67150 | 33843 ft | 491 kts | 309° |
| 2026-05-04 21:11 | -1.53676 | 97.61797 | 33850 ft | 491 kts | 310° |
| 2026-05-04 21:12 | -1.49360 | 97.56511 | 33849 ft | 491 kts | 310° |
| 2026-05-04 21:12 | -1.45040 | 97.51221 | 33850 ft | 490 kts | 310° |
| 2026-05-04 21:13 | -1.40701 | 97.45905 | 33850 ft | 490 kts | 310° |
| 2026-05-04 21:13 | -1.36407 | 97.40646 | 33849 ft | 491 kts | 310° |
| 2026-05-04 21:14 | -1.32080 | 97.35345 | 33840 ft | 490 kts | 310° |
| 2026-05-04 21:14 | -1.27760 | 97.30053 | 33826 ft | 491 kts | 310° |
| 2026-05-04 21:15 | -1.23443 | 97.24765 | 33825 ft | 490 kts | 310° |
| 2026-05-04 21:15 | -1.19101 | 97.19446 | 33826 ft | 489 kts | 310° |
| 2026-05-04 21:16 | -1.14805 | 97.14185 | 33826 ft | 489 kts | 310° |
| 2026-05-04 21:16 | -1.10499 | 97.08910 | 33826 ft | 489 kts | 310° |
| 2026-05-04 21:17 | -1.06169 | 97.03607 | 33826 ft | 489 kts | 310° |
| 2026-05-04 21:17 | -1.01855 | 96.98325 | 33827 ft | 490 kts | 310° |
| 2026-05-04 21:18 | -0.97552 | 96.93056 | 33826 ft | 490 kts | 310° |
| 2026-05-04 21:18 | -0.93229 | 96.87762 | 33827 ft | 490 kts | 310° |
| 2026-05-04 21:19 | -0.88916 | 96.82481 | 33828 ft | 489 kts | 310° |
| 2026-05-04 21:19 | -0.84616 | 96.77215 | 33829 ft | 488 kts | 311° |
| 2026-05-04 21:20 | -0.80299 | 96.71929 | 33829 ft | 488 kts | 311° |
| 2026-05-04 21:20 | -0.76000 | 96.66666 | 33829 ft | 488 kts | 311° |
| 2026-05-04 21:21 | -0.71707 | 96.61410 | 33829 ft | 489 kts | 311° |
| 2026-05-04 21:21 | -0.67409 | 96.56149 | 33830 ft | 489 kts | 311° |
| 2026-05-04 21:22 | -0.63097 | 96.50871 | 33830 ft | 488 kts | 311° |
| 2026-05-04 21:22 | -0.58772 | 96.45575 | 33831 ft | 487 kts | 311° |
| 2026-05-04 21:23 | -0.54473 | 96.40312 | 33833 ft | 487 kts | 311° |
| 2026-05-04 21:23 | -0.50196 | 96.35077 | 33838 ft | 489 kts | 311° |
| 2026-05-04 21:24 | -0.45892 | 96.29809 | 33832 ft | 488 kts | 311° |
| 2026-05-04 21:24 | -0.41591 | 96.24545 | 33833 ft | 487 kts | 311° |
| 2026-05-04 21:25 | -0.37295 | 96.19286 | 33833 ft | 487 kts | 311° |
| 2026-05-04 21:25 | -0.33008 | 96.14038 | 33837 ft | 486 kts | 311° |
| 2026-05-04 21:26 | -0.28695 | 96.08759 | 33840 ft | 487 kts | 311° |
| 2026-05-04 21:26 | -0.24404 | 96.03507 | 33847 ft | 488 kts | 311° |
| 2026-05-04 21:27 | -0.20109 | 95.98251 | 33847 ft | 487 kts | 310° |
| 2026-05-04 21:27 | -0.15819 | 95.92999 | 33847 ft | 486 kts | 310° |
| 2026-05-04 21:28 | -0.11514 | 95.87730 | 33847 ft | 486 kts | 310° |
| 2026-05-04 21:28 | -0.07232 | 95.82490 | 33847 ft | 485 kts | 310° |